Redford, Missouri
Current Conditions -  °F | °C
As of 1:55 PM on Thursday 18 Dec 2014 (Local Time) from KFAM Reporting Station
Overcast Overcast  
Wind Chill: 30°   Ceiling: 800
Heat Index: 34°   Visibility: 5mi
Dew Point: 32°   Wind: 5mph
Humidity: 93%   Direction: 20°NNE
Pressure: 30.2"   Gusts: NA
Location:  37.32°N, 90.9°W
Report Text: KFAM 181955Z AUTO 02004KT 5SM OVC008 01/00 A3020 RMK AO1
Loading
Personal Weather Stations






























Interactive Weather Map New forecast layout! Learn more

10-Day Weather Forecast

Advertisements
Track Severe Weather on mobile